sensor_id;sensor_type;location;lat;lon;timestamp;pressure;altitude;pressure_sealevel;temperature
25514;BMP180;48128;54.242;10.280;2023-12-29T00:02:15;99666.00;;;8.70
25514;BMP180;48128;54.242;10.280;2023-12-29T00:04:42;99671.00;;;8.70
25514;BMP180;48128;54.242;10.280;2023-12-29T00:07:10;99655.00;;;8.70
25514;BMP180;48128;54.242;10.280;2023-12-29T00:09:37;99662.00;;;8.70
25514;BMP180;48128;54.242;10.280;2023-12-29T00:12:08;99639.00;;;8.70
25514;BMP180;48128;54.242;10.280;2023-12-29T00:14:41;99626.00;;;8.70
25514;BMP180;48128;54.242;10.280;2023-12-29T00:17:09;99601.00;;;8.70
25514;BMP180;48128;54.242;10.280;2023-12-29T00:19:36;99605.00;;;8.70
25514;BMP180;48128;54.242;10.280;2023-12-29T00:22:03;99612.00;;;8.70
25514;BMP180;48128;54.242;10.280;2023-12-29T00:24:31;99631.00;;;8.70
25514;BMP180;48128;54.242;10.280;2023-12-29T00:27:00;99644.00;;;8.60
25514;BMP180;48128;54.242;10.280;2023-12-29T00:29:28;99650.00;;;8.60
25514;BMP180;48128;54.242;10.280;2023-12-29T00:32:00;99668.00;;;8.60
25514;BMP180;48128;54.242;10.280;2023-12-29T00:34:27;99652.00;;;8.50
25514;BMP180;48128;54.242;10.280;2023-12-29T00:36:55;99651.00;;;8.50
25514;BMP180;48128;54.242;10.280;2023-12-29T00:39:22;99646.00;;;8.50
25514;BMP180;48128;54.242;10.280;2023-12-29T00:41:55;99651.00;;;8.50
25514;BMP180;48128;54.242;10.280;2023-12-29T00:44:23;99632.00;;;8.50
25514;BMP180;48128;54.242;10.280;2023-12-29T00:46:50;99636.00;;;8.50
25514;BMP180;48128;54.242;10.280;2023-12-29T00:49:17;99647.00;;;8.50
25514;BMP180;48128;54.242;10.280;2023-12-29T00:51:47;99646.00;;;8.50
25514;BMP180;48128;54.242;10.280;2023-12-29T00:54:14;99637.00;;;8.50
25514;BMP180;48128;54.242;10.280;2023-12-29T00:56:42;99641.00;;;8.50
25514;BMP180;48128;54.242;10.280;2023-12-29T00:59:09;99637.00;;;8.50
25514;BMP180;48128;54.242;10.280;2023-12-29T01:01:38;99630.00;;;8.40
25514;BMP180;48128;54.242;10.280;2023-12-29T01:04:05;99633.00;;;8.40
25514;BMP180;48128;54.242;10.280;2023-12-29T01:06:33;99627.00;;;8.40
25514;BMP180;48128;54.242;10.280;2023-12-29T01:09:00;99633.00;;;8.40
25514;BMP180;48128;54.242;10.280;2023-12-29T01:11:27;99616.00;;;8.40
25514;BMP180;48128;54.242;10.280;2023-12-29T01:13:53;99627.00;;;8.30
25514;BMP180;48128;54.242;10.280;2023-12-29T01:16:20;99637.00;;;8.30
25514;BMP180;48128;54.242;10.280;2023-12-29T01:18:47;99633.00;;;8.30
25514;BMP180;48128;54.242;10.280;2023-12-29T01:21:14;99627.00;;;8.30
25514;BMP180;48128;54.242;10.280;2023-12-29T01:23:41;99617.00;;;8.30
25514;BMP180;48128;54.242;10.280;2023-12-29T01:26:08;99621.00;;;8.20
25514;BMP180;48128;54.242;10.280;2023-12-29T01:28:35;99604.00;;;8.20
25514;BMP180;48128;54.242;10.280;2023-12-29T01:31:02;99601.00;;;8.20
25514;BMP180;48128;54.242;10.280;2023-12-29T01:33:29;99594.00;;;8.20
25514;BMP180;48128;54.242;10.280;2023-12-29T01:35:56;99600.00;;;8.20
25514;BMP180;48128;54.242;10.280;2023-12-29T01:38:24;99600.00;;;8.20
25514;BMP180;48128;54.242;10.280;2023-12-29T01:40:51;99588.00;;;8.20
25514;BMP180;48128;54.242;10.280;2023-12-29T01:43:18;99595.00;;;8.20
25514;BMP180;48128;54.242;10.280;2023-12-29T01:45:45;99591.00;;;8.20
25514;BMP180;48128;54.242;10.280;2023-12-29T01:48:23;99590.00;;;8.20
25514;BMP180;48128;54.242;10.280;2023-12-29T01:50:51;99577.00;;;8.20
25514;BMP180;48128;54.242;10.280;2023-12-29T01:53:18;99573.00;;;8.20
25514;BMP180;48128;54.242;10.280;2023-12-29T01:55:56;99589.00;;;8.20
25514;BMP180;48128;54.242;10.280;2023-12-29T01:58:25;99575.00;;;8.20
25514;BMP180;48128;54.242;10.280;2023-12-29T02:00:52;99579.00;;;8.20
25514;BMP180;48128;54.242;10.280;2023-12-29T02:03:19;99588.00;;;8.20
25514;BMP180;48128;54.242;10.280;2023-12-29T02:05:47;99583.00;;;8.20
25514;BMP180;48128;54.242;10.280;2023-12-29T02:08:14;99576.00;;;8.20
25514;BMP180;48128;54.242;10.280;2023-12-29T02:10:42;99572.00;;;8.20
25514;BMP180;48128;54.242;10.280;2023-12-29T02:13:08;99577.00;;;8.20
25514;BMP180;48128;54.242;10.280;2023-12-29T02:15:35;99556.00;;;8.20
25514;BMP180;48128;54.242;10.280;2023-12-29T02:18:03;99544.00;;;8.20
25514;BMP180;48128;54.242;10.280;2023-12-29T02:20:33;99533.00;;;8.20
25514;BMP180;48128;54.242;10.280;2023-12-29T02:23:00;99539.00;;;8.20
25514;BMP180;48128;54.242;10.280;2023-12-29T02:25:27;99543.00;;;8.20
25514;BMP180;48128;54.242;10.280;2023-12-29T02:28:20;99537.00;;;8.20
25514;BMP180;48128;54.242;10.280;2023-12-29T02:33:22;99535.00;;;8.20
25514;BMP180;48128;54.242;10.280;2023-12-29T02:35:52;99530.00;;;8.20
25514;BMP180;48128;54.242;10.280;2023-12-29T02:38:21;99529.00;;;8.20
25514;BMP180;48128;54.242;10.280;2023-12-29T02:40:48;99524.00;;;8.30
25514;BMP180;48128;54.242;10.280;2023-12-29T02:43:15;99539.00;;;8.30
25514;BMP180;48128;54.242;10.280;2023-12-29T02:45:42;99523.00;;;8.40
25514;BMP180;48128;54.242;10.280;2023-12-29T02:48:09;99532.00;;;8.40
25514;BMP180;48128;54.242;10.280;2023-12-29T02:50:36;99539.00;;;8.40
25514;BMP180;48128;54.242;10.280;2023-12-29T02:53:03;99532.00;;;8.40
25514;BMP180;48128;54.242;10.280;2023-12-29T02:55:33;99528.00;;;8.40
25514;BMP180;48128;54.242;10.280;2023-12-29T02:58:00;99526.00;;;8.40
25514;BMP180;48128;54.242;10.280;2023-12-29T03:00:27;99516.00;;;8.40
25514;BMP180;48128;54.242;10.280;2023-12-29T03:02:54;99528.00;;;8.30
25514;BMP180;48128;54.242;10.280;2023-12-29T03:05:22;99540.00;;;8.30
25514;BMP180;48128;54.242;10.280;2023-12-29T03:07:48;99529.00;;;8.20
25514;BMP180;48128;54.242;10.280;2023-12-29T03:10:15;99530.00;;;8.20
25514;BMP180;48128;54.242;10.280;2023-12-29T03:12:42;99533.00;;;8.20
25514;BMP180;48128;54.242;10.280;2023-12-29T03:15:09;99517.00;;;8.10
25514;BMP180;48128;54.242;10.280;2023-12-29T03:17:36;99518.00;;;8.10
25514;BMP180;48128;54.242;10.280;2023-12-29T03:20:04;99512.00;;;8.10
25514;BMP180;48128;54.242;10.280;2023-12-29T03:22:32;99501.00;;;8.10
25514;BMP180;48128;54.242;10.280;2023-12-29T03:24:59;99501.00;;;8.10
25514;BMP180;48128;54.242;10.280;2023-12-29T03:27:26;99498.00;;;8.10
25514;BMP180;48128;54.242;10.280;2023-12-29T03:29:53;99515.00;;;8.10
25514;BMP180;48128;54.242;10.280;2023-12-29T03:32:20;99509.00;;;8.10
25514;BMP180;48128;54.242;10.280;2023-12-29T03:34:46;99496.00;;;8.10
25514;BMP180;48128;54.242;10.280;2023-12-29T03:37:13;99494.00;;;8.20
25514;BMP180;48128;54.242;10.280;2023-12-29T03:39:40;99493.00;;;8.20
25514;BMP180;48128;54.242;10.280;2023-12-29T03:42:08;99494.00;;;8.30
25514;BMP180;48128;54.242;10.280;2023-12-29T03:44:35;99492.00;;;8.30
25514;BMP180;48128;54.242;10.280;2023-12-29T03:47:02;99484.00;;;8.40
25514;BMP180;48128;54.242;10.280;2023-12-29T03:49:28;99487.00;;;8.40
25514;BMP180;48128;54.242;10.280;2023-12-29T03:51:56;99488.00;;;8.50
25514;BMP180;48128;54.242;10.280;2023-12-29T03:54:22;99485.00;;;8.50
25514;BMP180;48128;54.242;10.280;2023-12-29T03:56:49;99491.00;;;8.50
25514;BMP180;48128;54.242;10.280;2023-12-29T03:59:16;99489.00;;;8.50
25514;BMP180;48128;54.242;10.280;2023-12-29T04:01:43;99487.00;;;8.50
25514;BMP180;48128;54.242;10.280;2023-12-29T04:04:10;99495.00;;;8.50
25514;BMP180;48128;54.242;10.280;2023-12-29T04:06:37;99483.00;;;8.50
25514;BMP180;48128;54.242;10.280;2023-12-29T04:09:04;99479.00;;;8.50
25514;BMP180;48128;54.242;10.280;2023-12-29T04:11:31;99472.00;;;8.50
25514;BMP180;48128;54.242;10.280;2023-12-29T04:13:58;99476.00;;;8.50
25514;BMP180;48128;54.242;10.280;2023-12-29T04:16:25;99480.00;;;8.50
25514;BMP180;48128;54.242;10.280;2023-12-29T04:18:52;99478.00;;;8.60
25514;BMP180;48128;54.242;10.280;2023-12-29T04:21:19;99483.00;;;8.50
25514;BMP180;48128;54.242;10.280;2023-12-29T04:23:46;99470.00;;;8.50
25514;BMP180;48128;54.242;10.280;2023-12-29T04:26:13;99465.00;;;8.50
25514;BMP180;48128;54.242;10.280;2023-12-29T04:28:40;99483.00;;;8.50
25514;BMP180;48128;54.242;10.280;2023-12-29T04:31:07;99483.00;;;8.50
25514;BMP180;48128;54.242;10.280;2023-12-29T04:33:34;99479.00;;;8.50
25514;BMP180;48128;54.242;10.280;2023-12-29T04:36:00;99470.00;;;8.60
25514;BMP180;48128;54.242;10.280;2023-12-29T04:38:27;99478.00;;;8.60
25514;BMP180;48128;54.242;10.280;2023-12-29T04:40:54;99477.00;;;8.60
25514;BMP180;48128;54.242;10.280;2023-12-29T04:43:21;99485.00;;;8.50
25514;BMP180;48128;54.242;10.280;2023-12-29T04:45:48;99469.00;;;8.60
25514;BMP180;48128;54.242;10.280;2023-12-29T04:48:15;99475.00;;;8.60
25514;BMP180;48128;54.242;10.280;2023-12-29T04:50:41;99471.00;;;8.60
25514;BMP180;48128;54.242;10.280;2023-12-29T04:53:08;99465.00;;;8.60
25514;BMP180;48128;54.242;10.280;2023-12-29T04:55:35;99475.00;;;8.60
25514;BMP180;48128;54.242;10.280;2023-12-29T04:58:03;99470.00;;;8.60
25514;BMP180;48128;54.242;10.280;2023-12-29T05:00:30;99478.00;;;8.60
25514;BMP180;48128;54.242;10.280;2023-12-29T05:02:57;99476.00;;;8.60
25514;BMP180;48128;54.242;10.280;2023-12-29T05:05:24;99480.00;;;8.60
25514;BMP180;48128;54.242;10.280;2023-12-29T05:07:51;99486.00;;;8.60
25514;BMP180;48128;54.242;10.280;2023-12-29T05:10:18;99476.00;;;8.50
25514;BMP180;48128;54.242;10.280;2023-12-29T05:12:45;99493.00;;;8.50
25514;BMP180;48128;54.242;10.280;2023-12-29T05:15:12;99488.00;;;8.50
25514;BMP180;48128;54.242;10.280;2023-12-29T05:17:38;99499.00;;;8.50
25514;BMP180;48128;54.242;10.280;2023-12-29T05:20:07;99492.00;;;8.50
25514;BMP180;48128;54.242;10.280;2023-12-29T05:22:34;99486.00;;;8.50
25514;BMP180;48128;54.242;10.280;2023-12-29T05:25:02;99492.00;;;8.40
25514;BMP180;48128;54.242;10.280;2023-12-29T05:27:29;99486.00;;;8.40
25514;BMP180;48128;54.242;10.280;2023-12-29T05:29:55;99501.00;;;8.40
25514;BMP180;48128;54.242;10.280;2023-12-29T05:32:22;99498.00;;;8.40
25514;BMP180;48128;54.242;10.280;2023-12-29T05:34:49;99530.00;;;8.40
25514;BMP180;48128;54.242;10.280;2023-12-29T05:37:16;99509.00;;;8.40
25514;BMP180;48128;54.242;10.280;2023-12-29T05:39:43;99521.00;;;8.40
25514;BMP180;48128;54.242;10.280;2023-12-29T05:42:10;99517.00;;;8.30
25514;BMP180;48128;54.242;10.280;2023-12-29T05:44:37;99516.00;;;8.30
25514;BMP180;48128;54.242;10.280;2023-12-29T05:47:04;99513.00;;;8.30
25514;BMP180;48128;54.242;10.280;2023-12-29T05:49:31;99519.00;;;8.20
25514;BMP180;48128;54.242;10.280;2023-12-29T05:52:05;99525.00;;;8.20
25514;BMP180;48128;54.242;10.280;2023-12-29T05:54:33;99518.00;;;8.20
25514;BMP180;48128;54.242;10.280;2023-12-29T05:57:01;99517.00;;;8.20
25514;BMP180;48128;54.242;10.280;2023-12-29T05:59:28;99530.00;;;8.10
25514;BMP180;48128;54.242;10.280;2023-12-29T06:01:55;99529.00;;;8.10
25514;BMP180;48128;54.242;10.280;2023-12-29T06:04:23;99520.00;;;8.10
25514;BMP180;48128;54.242;10.280;2023-12-29T06:06:50;99536.00;;;8.10
25514;BMP180;48128;54.242;10.280;2023-12-29T06:09:17;99533.00;;;8.10
25514;BMP180;48128;54.242;10.280;2023-12-29T06:11:44;99528.00;;;8.00
25514;BMP180;48128;54.242;10.280;2023-12-29T06:14:11;99528.00;;;8.00
25514;BMP180;48128;54.242;10.280;2023-12-29T06:16:38;99536.00;;;8.00
25514;BMP180;48128;54.242;10.280;2023-12-29T06:19:05;99527.00;;;8.00
25514;BMP180;48128;54.242;10.280;2023-12-29T06:21:32;99556.00;;;8.00
25514;BMP180;48128;54.242;10.280;2023-12-29T06:23:59;99533.00;;;8.00
25514;BMP180;48128;54.242;10.280;2023-12-29T06:26:26;99544.00;;;7.90
25514;BMP180;48128;54.242;10.280;2023-12-29T06:28:53;99542.00;;;7.90
25514;BMP180;48128;54.242;10.280;2023-12-29T06:31:20;99535.00;;;7.90
25514;BMP180;48128;54.242;10.280;2023-12-29T06:33:47;99538.00;;;7.90
25514;BMP180;48128;54.242;10.280;2023-12-29T06:36:14;99544.00;;;7.80
25514;BMP180;48128;54.242;10.280;2023-12-29T06:38:41;99545.00;;;7.80
25514;BMP180;48128;54.242;10.280;2023-12-29T06:41:09;99550.00;;;7.80
25514;BMP180;48128;54.242;10.280;2023-12-29T06:43:36;99549.00;;;7.80
25514;BMP180;48128;54.242;10.280;2023-12-29T06:46:03;99543.00;;;7.80
25514;BMP180;48128;54.242;10.280;2023-12-29T06:48:31;99572.00;;;7.90
25514;BMP180;48128;54.242;10.280;2023-12-29T06:50:58;99569.00;;;7.90
25514;BMP180;48128;54.242;10.280;2023-12-29T06:53:25;99566.00;;;7.90
25514;BMP180;48128;54.242;10.280;2023-12-29T06:55:52;99580.00;;;7.80
25514;BMP180;48128;54.242;10.280;2023-12-29T06:58:19;99568.00;;;7.90
25514;BMP180;48128;54.242;10.280;2023-12-29T07:00:46;99576.00;;;7.80
25514;BMP180;48128;54.242;10.280;2023-12-29T07:03:13;99581.00;;;7.80
25514;BMP180;48128;54.242;10.280;2023-12-29T07:05:41;99570.00;;;7.80
25514;BMP180;48128;54.242;10.280;2023-12-29T07:08:08;99572.00;;;7.80
25514;BMP180;48128;54.242;10.280;2023-12-29T07:10:35;99579.00;;;7.80
25514;BMP180;48128;54.242;10.280;2023-12-29T07:13:02;99566.00;;;7.80
25514;BMP180;48128;54.242;10.280;2023-12-29T07:15:29;99563.00;;;7.80
25514;BMP180;48128;54.242;10.280;2023-12-29T07:17:56;99564.00;;;7.80
25514;BMP180;48128;54.242;10.280;2023-12-29T07:20:24;99569.00;;;7.80
25514;BMP180;48128;54.242;10.280;2023-12-29T07:22:51;99547.00;;;7.80
25514;BMP180;48128;54.242;10.280;2023-12-29T07:25:18;99550.00;;;7.80
25514;BMP180;48128;54.242;10.280;2023-12-29T07:27:45;99549.00;;;7.80
25514;BMP180;48128;54.242;10.280;2023-12-29T07:30:15;99555.00;;;7.80
25514;BMP180;48128;54.242;10.280;2023-12-29T07:32:42;99550.00;;;7.80
25514;BMP180;48128;54.242;10.280;2023-12-29T07:35:10;99560.00;;;7.80
25514;BMP180;48128;54.242;10.280;2023-12-29T07:37:37;99548.00;;;7.70
25514;BMP180;48128;54.242;10.280;2023-12-29T07:40:04;99554.00;;;7.70
25514;BMP180;48128;54.242;10.280;2023-12-29T07:42:31;99561.00;;;7.80
25514;BMP180;48128;54.242;10.280;2023-12-29T07:44:59;99562.00;;;7.80
25514;BMP180;48128;54.242;10.280;2023-12-29T07:47:26;99561.00;;;7.80
25514;BMP180;48128;54.242;10.280;2023-12-29T07:49:53;99568.00;;;7.70
25514;BMP180;48128;54.242;10.280;2023-12-29T07:52:20;99564.00;;;7.80
25514;BMP180;48128;54.242;10.280;2023-12-29T07:54:46;99567.00;;;7.80
25514;BMP180;48128;54.242;10.280;2023-12-29T07:57:13;99582.00;;;7.80
25514;BMP180;48128;54.242;10.280;2023-12-29T07:59:43;99577.00;;;7.80
25514;BMP180;48128;54.242;10.280;2023-12-29T08:02:13;99588.00;;;7.90
25514;BMP180;48128;54.242;10.280;2023-12-29T08:04:40;99596.00;;;7.90
25514;BMP180;48128;54.242;10.280;2023-12-29T08:07:07;99606.00;;;7.90
25514;BMP180;48128;54.242;10.280;2023-12-29T08:09:34;99599.00;;;7.90
25514;BMP180;48128;54.242;10.280;2023-12-29T08:12:02;99609.00;;;7.90
25514;BMP180;48128;54.242;10.280;2023-12-29T08:14:28;99600.00;;;7.90
25514;BMP180;48128;54.242;10.280;2023-12-29T08:16:55;99604.00;;;8.00
25514;BMP180;48128;54.242;10.280;2023-12-29T08:19:23;99607.00;;;8.00
25514;BMP180;48128;54.242;10.280;2023-12-29T08:21:51;99594.00;;;8.00
25514;BMP180;48128;54.242;10.280;2023-12-29T08:24:18;99599.00;;;8.00
25514;BMP180;48128;54.242;10.280;2023-12-29T08:26:47;99595.00;;;8.00
25514;BMP180;48128;54.242;10.280;2023-12-29T08:29:14;99604.00;;;8.00
25514;BMP180;48128;54.242;10.280;2023-12-29T08:31:42;99616.00;;;8.00
25514;BMP180;48128;54.242;10.280;2023-12-29T08:34:09;99614.00;;;8.00
25514;BMP180;48128;54.242;10.280;2023-12-29T08:36:37;99629.00;;;8.10
25514;BMP180;48128;54.242;10.280;2023-12-29T08:39:04;99626.00;;;8.10
25514;BMP180;48128;54.242;10.280;2023-12-29T08:41:31;99617.00;;;8.10
25514;BMP180;48128;54.242;10.280;2023-12-29T08:43:58;99622.00;;;8.20
25514;BMP180;48128;54.242;10.280;2023-12-29T08:46:25;99623.00;;;8.20
25514;BMP180;48128;54.242;10.280;2023-12-29T08:48:53;99637.00;;;8.20
25514;BMP180;48128;54.242;10.280;2023-12-29T08:51:20;99641.00;;;8.20
25514;BMP180;48128;54.242;10.280;2023-12-29T08:53:47;99634.00;;;8.20
25514;BMP180;48128;54.242;10.280;2023-12-29T08:56:14;99635.00;;;8.20
25514;BMP180;48128;54.242;10.280;2023-12-29T08:58:41;99628.00;;;8.20
25514;BMP180;48128;54.242;10.280;2023-12-29T09:01:08;99625.00;;;8.20
25514;BMP180;48128;54.242;10.280;2023-12-29T09:03:35;99623.00;;;8.20
25514;BMP180;48128;54.242;10.280;2023-12-29T09:06:02;99640.00;;;8.30
25514;BMP180;48128;54.242;10.280;2023-12-29T09:08:30;99635.00;;;8.30
25514;BMP180;48128;54.242;10.280;2023-12-29T09:10:57;99620.00;;;8.30
25514;BMP180;48128;54.242;10.280;2023-12-29T09:13:24;99622.00;;;8.30
25514;BMP180;48128;54.242;10.280;2023-12-29T09:15:54;99627.00;;;8.30
25514;BMP180;48128;54.242;10.280;2023-12-29T09:18:21;99643.00;;;8.40
25514;BMP180;48128;54.242;10.280;2023-12-29T09:20:48;99646.00;;;8.40
25514;BMP180;48128;54.242;10.280;2023-12-29T09:23:15;99640.00;;;8.30
25514;BMP180;48128;54.242;10.280;2023-12-29T09:25:42;99632.00;;;8.20
25514;BMP180;48128;54.242;10.280;2023-12-29T09:28:09;99632.00;;;8.10
25514;BMP180;48128;54.242;10.280;2023-12-29T09:30:36;99630.00;;;8.10
25514;BMP180;48128;54.242;10.280;2023-12-29T09:33:03;99631.00;;;8.10
25514;BMP180;48128;54.242;10.280;2023-12-29T09:35:30;99619.00;;;8.10
25514;BMP180;48128;54.242;10.280;2023-12-29T09:37:59;99624.00;;;8.10
25514;BMP180;48128;54.242;10.280;2023-12-29T09:40:27;99635.00;;;8.10
25514;BMP180;48128;54.242;10.280;2023-12-29T09:42:53;99624.00;;;8.00
25514;BMP180;48128;54.242;10.280;2023-12-29T09:45:23;99618.00;;;8.00
25514;BMP180;48128;54.242;10.280;2023-12-29T09:47:52;99631.00;;;8.00
25514;BMP180;48128;54.242;10.280;2023-12-29T09:50:20;99637.00;;;8.00
25514;BMP180;48128;54.242;10.280;2023-12-29T09:52:48;99646.00;;;8.10
25514;BMP180;48128;54.242;10.280;2023-12-29T09:55:16;99643.00;;;8.20
25514;BMP180;48128;54.242;10.280;2023-12-29T09:57:44;99652.00;;;8.30
25514;BMP180;48128;54.242;10.280;2023-12-29T10:00:13;99645.00;;;8.50
25514;BMP180;48128;54.242;10.280;2023-12-29T10:02:41;99659.00;;;8.50
25514;BMP180;48128;54.242;10.280;2023-12-29T10:05:09;99659.00;;;8.60
25514;BMP180;48128;54.242;10.280;2023-12-29T10:07:37;99649.00;;;8.70
25514;BMP180;48128;54.242;10.280;2023-12-29T10:10:07;99674.00;;;8.80
25514;BMP180;48128;54.242;10.280;2023-12-29T10:12:35;99668.00;;;8.80
25514;BMP180;48128;54.242;10.280;2023-12-29T10:20:20;99666.00;;;9.00
25514;BMP180;48128;54.242;10.280;2023-12-29T10:23:05;99663.00;;;9.10
25514;BMP180;48128;54.242;10.280;2023-12-29T10:25:35;99663.00;;;9.20
25514;BMP180;48128;54.242;10.280;2023-12-29T10:28:09;99660.00;;;9.20
25514;BMP180;48128;54.242;10.280;2023-12-29T10:30:36;99665.00;;;9.20
25514;BMP180;48128;54.242;10.280;2023-12-29T10:33:04;99666.00;;;9.20
25514;BMP180;48128;54.242;10.280;2023-12-29T10:35:34;99664.00;;;9.10
25514;BMP180;48128;54.242;10.280;2023-12-29T10:38:12;99659.00;;;9.10
25514;BMP180;48128;54.242;10.280;2023-12-29T10:40:40;99662.00;;;9.00
25514;BMP180;48128;54.242;10.280;2023-12-29T10:43:09;99654.00;;;9.00
25514;BMP180;48128;54.242;10.280;2023-12-29T10:45:37;99652.00;;;8.90
25514;BMP180;48128;54.242;10.280;2023-12-29T10:48:04;99640.00;;;8.90
25514;BMP180;48128;54.242;10.280;2023-12-29T10:50:42;99642.00;;;8.90
25514;BMP180;48128;54.242;10.280;2023-12-29T10:53:16;99635.00;;;8.90
25514;BMP180;48128;54.242;10.280;2023-12-29T10:55:44;99638.00;;;8.90
25514;BMP180;48128;54.242;10.280;2023-12-29T10:58:11;99647.00;;;8.90
25514;BMP180;48128;54.242;10.280;2023-12-29T11:00:38;99636.00;;;8.90
25514;BMP180;48128;54.242;10.280;2023-12-29T11:03:05;99632.00;;;8.90
25514;BMP180;48128;54.242;10.280;2023-12-29T11:05:33;99623.00;;;8.90
25514;BMP180;48128;54.242;10.280;2023-12-29T11:08:00;99628.00;;;8.90
25514;BMP180;48128;54.242;10.280;2023-12-29T11:10:27;99625.00;;;8.90
25514;BMP180;48128;54.242;10.280;2023-12-29T11:12:56;99634.00;;;8.90
25514;BMP180;48128;54.242;10.280;2023-12-29T11:15:23;99629.00;;;8.90
25514;BMP180;48128;54.242;10.280;2023-12-29T11:17:51;99620.00;;;8.80
25514;BMP180;48128;54.242;10.280;2023-12-29T11:20:18;99638.00;;;8.90
25514;BMP180;48128;54.242;10.280;2023-12-29T11:22:46;99639.00;;;8.90
25514;BMP180;48128;54.242;10.280;2023-12-29T11:25:14;99646.00;;;8.90
25514;BMP180;48128;54.242;10.280;2023-12-29T11:27:42;99645.00;;;9.00
25514;BMP180;48128;54.242;10.280;2023-12-29T11:30:10;99641.00;;;9.10
25514;BMP180;48128;54.242;10.280;2023-12-29T11:32:53;99656.00;;;9.20
25514;BMP180;48128;54.242;10.280;2023-12-29T11:35:26;99647.00;;;9.20
25514;BMP180;48128;54.242;10.280;2023-12-29T11:40:50;99641.00;;;9.00
25514;BMP180;48128;54.242;10.280;2023-12-29T11:43:18;99669.00;;;9.00
25514;BMP180;48128;54.242;10.280;2023-12-29T11:45:49;99643.00;;;9.00
25514;BMP180;48128;54.242;10.280;2023-12-29T11:53:55;99659.00;;;9.00
25514;BMP180;48128;54.242;10.280;2023-12-29T11:56:22;99667.00;;;9.00
25514;BMP180;48128;54.242;10.280;2023-12-29T11:58:52;99692.00;;;8.90
25514;BMP180;48128;54.242;10.280;2023-12-29T12:01:33;99680.00;;;8.90
25514;BMP180;48128;54.242;10.280;2023-12-29T12:04:02;99686.00;;;8.90
25514;BMP180;48128;54.242;10.280;2023-12-29T12:06:37;99683.00;;;8.90
25514;BMP180;48128;54.242;10.280;2023-12-29T12:09:22;99671.00;;;8.80
25514;BMP180;48128;54.242;10.280;2023-12-29T12:11:51;99662.00;;;8.80
25514;BMP180;48128;54.242;10.280;2023-12-29T12:17:10;99683.00;;;8.90
25514;BMP180;48128;54.242;10.280;2023-12-29T12:19:37;99654.00;;;8.80
25514;BMP180;48128;54.242;10.280;2023-12-29T12:22:04;99647.00;;;8.80
25514;BMP180;48128;54.242;10.280;2023-12-29T12:24:33;99657.00;;;8.70
25514;BMP180;48128;54.242;10.280;2023-12-29T12:27:02;99647.00;;;8.70
25514;BMP180;48128;54.242;10.280;2023-12-29T12:29:29;99635.00;;;8.60
25514;BMP180;48128;54.242;10.280;2023-12-29T12:31:56;99642.00;;;8.50
25514;BMP180;48128;54.242;10.280;2023-12-29T12:34:24;99621.00;;;8.50
25514;BMP180;48128;54.242;10.280;2023-12-29T12:36:52;99632.00;;;8.50
25514;BMP180;48128;54.242;10.280;2023-12-29T12:39:19;99635.00;;;8.60
25514;BMP180;48128;54.242;10.280;2023-12-29T12:41:46;99597.00;;;8.50
25514;BMP180;48128;54.242;10.280;2023-12-29T12:44:14;99587.00;;;8.40
25514;BMP180;48128;54.242;10.280;2023-12-29T12:49:13;99568.00;;;8.20
25514;BMP180;48128;54.242;10.280;2023-12-29T12:51:41;99564.00;;;8.20
25514;BMP180;48128;54.242;10.280;2023-12-29T12:54:09;99587.00;;;8.30
25514;BMP180;48128;54.242;10.280;2023-12-29T12:56:36;99576.00;;;8.40
25514;BMP180;48128;54.242;10.280;2023-12-29T12:59:03;99597.00;;;8.40
25514;BMP180;48128;54.242;10.280;2023-12-29T13:01:36;99570.00;;;8.50
25514;BMP180;48128;54.242;10.280;2023-12-29T13:04:04;99587.00;;;8.60
25514;BMP180;48128;54.242;10.280;2023-12-29T13:06:32;99584.00;;;8.60
25514;BMP180;48128;54.242;10.280;2023-12-29T13:09:03;99607.00;;;8.60
25514;BMP180;48128;54.242;10.280;2023-12-29T13:11:32;99636.00;;;8.60
25514;BMP180;48128;54.242;10.280;2023-12-29T13:13:59;99642.00;;;8.60
25514;BMP180;48128;54.242;10.280;2023-12-29T13:16:31;99630.00;;;8.50
25514;BMP180;48128;54.242;10.280;2023-12-29T13:19:15;99621.00;;;8.40
25514;BMP180;48128;54.242;10.280;2023-12-29T13:21:42;99636.00;;;8.30
25514;BMP180;48128;54.242;10.280;2023-12-29T13:24:09;99621.00;;;8.20
25514;BMP180;48128;54.242;10.280;2023-12-29T13:26:37;99607.00;;;8.20
25514;BMP180;48128;54.242;10.280;2023-12-29T13:29:04;99621.00;;;8.30
25514;BMP180;48128;54.242;10.280;2023-12-29T13:31:31;99600.00;;;8.30
25514;BMP180;48128;54.242;10.280;2023-12-29T13:34:01;99637.00;;;8.30
25514;BMP180;48128;54.242;10.280;2023-12-29T13:38:59;99630.00;;;8.40
25514;BMP180;48128;54.242;10.280;2023-12-29T13:41:32;99641.00;;;8.50
25514;BMP180;48128;54.242;10.280;2023-12-29T13:44:00;99660.00;;;8.50
25514;BMP180;48128;54.242;10.280;2023-12-29T13:46:27;99646.00;;;8.60
25514;BMP180;48128;54.242;10.280;2023-12-29T13:48:54;99664.00;;;8.60
25514;BMP180;48128;54.242;10.280;2023-12-29T13:51:25;99642.00;;;8.60
25514;BMP180;48128;54.242;10.280;2023-12-29T13:54:01;99642.00;;;8.60
25514;BMP180;48128;54.242;10.280;2023-12-29T13:56:29;99648.00;;;8.70
25514;BMP180;48128;54.242;10.280;2023-12-29T13:58:58;99639.00;;;8.70
25514;BMP180;48128;54.242;10.280;2023-12-29T14:01:35;99655.00;;;8.80
25514;BMP180;48128;54.242;10.280;2023-12-29T14:04:06;99672.00;;;8.70
25514;BMP180;48128;54.242;10.280;2023-12-29T14:06:48;99661.00;;;8.70
25514;BMP180;48128;54.242;10.280;2023-12-29T14:09:16;99662.00;;;8.60
25514;BMP180;48128;54.242;10.280;2023-12-29T14:11:45;99660.00;;;8.50
25514;BMP180;48128;54.242;10.280;2023-12-29T14:14:12;99647.00;;;8.50
25514;BMP180;48128;54.242;10.280;2023-12-29T14:16:42;99677.00;;;8.40
25514;BMP180;48128;54.242;10.280;2023-12-29T14:19:09;99658.00;;;8.40
25514;BMP180;48128;54.242;10.280;2023-12-29T14:21:36;99669.00;;;8.40
25514;BMP180;48128;54.242;10.280;2023-12-29T14:24:14;99668.00;;;8.40
25514;BMP180;48128;54.242;10.280;2023-12-29T14:29:20;99670.00;;;8.40
25514;BMP180;48128;54.242;10.280;2023-12-29T14:31:47;99681.00;;;8.30
25514;BMP180;48128;54.242;10.280;2023-12-29T14:34:15;99655.00;;;8.30
25514;BMP180;48128;54.242;10.280;2023-12-29T14:36:42;99667.00;;;8.30
25514;BMP180;48128;54.242;10.280;2023-12-29T14:39:10;99674.00;;;8.30
25514;BMP180;48128;54.242;10.280;2023-12-29T14:41:38;99674.00;;;8.20